Time;durP1;ratioP1;P1;durP2;ratioP2;P2;SDS_P1;SDS_P2;PMS_P1;PMS_P2;Temp;Humidity;BMP_temperature;BMP_pressure;BME280_temperature;BME280_humidity;BME280_pressure;Samples;Min_cycle;Max_cycle;Signal;HPM_P1;HPM_P2
2022/08/12 00:45:04;;;;;;;8.00;3.85;;;20.10;99.90;;;;;;5052896;28;20492;-81
2022/08/12 00:47:32;;;;;;;5.68;3.75;;;20.00;99.90;;;;;;5052346;28;20127;-81
2022/08/12 00:49:57;;;;;;;5.97;3.25;;;20.00;99.90;;;;;;5053573;28;20053;-81
2022/08/12 00:52:24;;;;;;;6.38;3.45;;;20.00;99.90;;;;;;5053452;28;20115;-81
2022/08/12 00:54:55;;;;;;;6.95;3.50;;;20.00;99.90;;;;;;5052014;28;20045;-81
2022/08/12 00:57:27;;;;;;;9.18;4.00;;;20.00;99.90;;;;;;5053241;28;20094;-80
2022/08/12 01:00:04;;;;;;;9.57;3.83;;;20.00;99.90;;;;;;5052039;28;20052;-81
2022/08/12 01:02:32;;;;;;;5.85;3.80;;;20.00;99.90;;;;;;5052281;28;20053;-80
2022/08/12 01:13:17;;;;;;;8.85;3.70;;;20.00;99.90;;;;;;5053272;28;20045;-81
2022/08/12 01:15:50;;;;;;;8.80;4.38;;;20.00;99.90;;;;;;5053141;28;20037;-80
2022/08/12 01:18:20;;;;;;;5.45;3.65;;;20.00;99.90;;;;;;5051726;28;20387;-80
2022/08/12 01:20:51;;;;;;;7.55;4.20;;;20.00;99.90;;;;;;5053187;28;20237;-80
2022/08/12 01:23:37;;;;;;;9.05;4.20;;;20.00;99.90;;;;;;5053111;28;20045;-81
2022/08/12 01:26:06;;;;;;;5.38;3.92;;;20.00;99.90;;;;;;5051679;28;20110;-81
2022/08/12 01:28:33;;;;;;;8.73;4.40;;;20.00;99.90;;;;;;5051628;28;20132;-80
2022/08/12 01:31:05;;;;;;;8.50;3.63;;;20.00;99.90;;;;;;5053759;28;20094;-80
2022/08/12 01:33:51;;;;;;;6.70;4.05;;;20.00;99.90;;;;;;5056619;28;20443;-80
2022/08/12 01:36:20;;;;;;;6.47;3.95;;;20.00;99.90;;;;;;5056676;28;20041;-80
2022/08/12 01:38:48;;;;;;;7.10;3.85;;;20.00;99.90;;;;;;5055372;28;20048;-80
2022/08/12 01:41:17;;;;;;;6.93;4.10;;;19.90;99.90;;;;;;5055223;28;20044;-81
2022/08/12 01:43:43;;;;;;;7.70;4.00;;;19.90;99.90;;;;;;5056565;28;20041;-80
2022/08/12 01:46:28;;;;;;;8.95;3.70;;;19.90;99.90;;;;;;5056528;28;20095;-81
2022/08/12 01:49:26;;;;;;;6.38;3.70;;;19.90;99.90;;;;;;5055422;28;20048;-80
2022/08/12 01:52:00;;;;;;;7.90;3.78;;;19.90;99.90;;;;;;5054404;28;20049;-81
2022/08/12 01:54:27;;;;;;;6.10;3.80;;;19.90;99.90;;;;;;5056334;28;20047;-80
2022/08/12 01:57:11;;;;;;;5.72;3.80;;;19.90;99.90;;;;;;5056175;28;20432;-80
2022/08/12 01:59:58;;;;;;;6.82;3.75;;;19.80;99.90;;;;;;5056241;28;20091;-80
2022/08/12 02:02:31;;;;;;;8.35;4.82;;;19.80;99.90;;;;;;5056298;28;20116;-81
2022/08/12 02:11:27;;;;;;;7.63;4.60;;;19.80;99.90;;;;;;5056099;28;20063;-80
2022/08/12 02:14:00;;;;;;;11.43;4.40;;;19.80;99.90;;;;;;5054805;28;20045;-80
2022/08/12 02:16:40;;;;;;;9.88;4.05;;;19.80;99.90;;;;;;5055896;28;20051;-80
2022/08/12 02:19:45;;;;;;;8.45;4.38;;;19.80;99.90;;;;;;5056116;28;20060;-80
2022/08/12 02:22:30;;;;;;;10.50;4.40;;;19.70;99.90;;;;;;5054852;28;20056;-80
2022/08/12 02:25:32;;;;;;;8.00;3.95;;;19.70;99.90;;;;;;5054385;28;20056;-80
2022/08/12 02:27:59;;;;;;;9.70;4.80;;;19.70;99.90;;;;;;5054401;28;20523;-80
2022/08/12 02:30:28;;;;;;;9.50;4.53;;;19.70;99.90;;;;;;5055639;28;20361;-80
2022/08/12 02:32:55;;;;;;;7.00;4.30;;;19.80;99.90;;;;;;5055601;28;20112;-80
2022/08/12 02:35:23;;;;;;;5.45;3.88;;;19.80;99.90;;;;;;5055617;28;20037;-80
2022/08/12 02:37:52;;;;;;;9.80;4.45;;;19.70;99.90;;;;;;5054083;28;20392;-81
2022/08/12 02:40:19;;;;;;;8.75;4.03;;;19.70;99.90;;;;;;5054173;28;20080;-81
2022/08/12 02:43:11;;;;;;;9.77;4.60;;;19.70;99.90;;;;;;5055175;28;20037;-81
2022/08/12 02:45:56;;;;;;;10.88;4.82;;;19.70;99.90;;;;;;5055456;28;20056;-80
2022/08/12 02:48:36;;;;;;;9.00;4.68;;;19.60;99.90;;;;;;5054369;28;20045;-80
2022/08/12 02:51:08;;;;;;;6.25;3.72;;;19.70;99.90;;;;;;5055283;28;20044;-80
2022/08/12 02:53:35;;;;;;;8.25;4.22;;;19.60;99.90;;;;;;5053931;28;20480;-79
2022/08/12 02:56:02;;;;;;;8.68;4.70;;;19.60;99.90;;;;;;5054901;28;20476;-80
2022/08/12 02:58:34;;;;;;;6.53;4.20;;;19.60;99.90;;;;;;5055011;28;20087;-80
2022/08/12 03:01:02;;;;;;;11.30;4.30;;;19.60;99.90;;;;;;5055114;28;20040;-80
2022/08/12 03:03:33;;;;;;;9.95;4.53;;;19.60;99.90;;;;;;5054968;28;20507;-80
2022/08/12 03:06:02;;;;;;;6.82;4.50;;;19.60;99.90;;;;;;5053744;28;20041;-80
2022/08/12 03:08:31;;;;;;;9.38;4.22;;;19.50;99.90;;;;;;5054950;28;20072;-80
2022/08/12 03:11:16;;;;;;;6.30;4.45;;;19.50;99.90;;;;;;5054990;28;20041;-81
2022/08/12 03:13:49;;;;;;;9.50;4.53;;;19.50;99.90;;;;;;5054968;28;20037;-80
2022/08/12 03:16:16;;;;;;;11.07;5.22;;;19.50;99.90;;;;;;5054782;28;20049;-80
2022/08/12 03:18:42;;;;;;;11.52;4.97;;;19.50;99.90;;;;;;5054701;28;20029;-80
2022/08/12 03:21:08;;;;;;;9.50;5.00;;;19.50;99.90;;;;;;5054446;28;20542;-80
2022/08/12 03:23:38;;;;;;;8.35;4.30;;;19.40;99.90;;;;;;5054656;28;20045;-81
2022/08/12 03:26:05;;;;;;;8.32;5.50;;;19.40;99.90;;;;;;5054234;28;20492;-81
2022/08/12 03:28:49;;;;;;;9.52;5.40;;;19.40;99.90;;;;;;5053252;28;20447;-81
2022/08/12 03:31:21;;;;;;;8.50;4.80;;;19.40;99.90;;;;;;5054549;28;20049;-81
2022/08/12 03:33:48;;;;;;;7.22;4.85;;;19.30;99.90;;;;;;5054549;28;20084;-81
2022/08/12 03:36:17;;;;;;;9.40;5.35;;;19.40;99.90;;;;;;5053033;28;20098;-81
2022/08/12 03:38:59;;;;;;;9.48;4.85;;;19.40;99.90;;;;;;5054327;28;20140;-81
2022/08/12 03:41:34;;;;;;;9.35;4.85;;;19.30;99.90;;;;;;5054383;28;20055;-81
2022/08/12 04:01:07;;;;;;;8.30;4.70;;;19.20;99.90;;;;;;5052336;28;20154;-81
2022/08/12 04:03:51;;;;;;;7.75;5.18;;;19.20;99.90;;;;;;5051685;28;20053;-81
2022/08/12 04:06:25;;;;;;;12.02;5.53;;;19.20;99.90;;;;;;5052206;28;20460;-81
2022/08/12 04:08:55;;;;;;;14.75;5.10;;;19.20;99.90;;;;;;5052156;28;20052;-80
2022/08/12 04:14:19;;;;;;;8.20;4.65;;;19.20;99.90;;;;;;5053816;28;20049;-80
2022/08/12 04:16:48;;;;;;;9.07;4.50;;;19.10;99.90;;;;;;5053446;28;20450;-80
2022/08/12 04:19:14;;;;;;;11.55;5.15;;;19.10;99.90;;;;;;5053706;28;20045;-80
2022/08/12 04:21:41;;;;;;;6.10;4.43;;;19.20;99.90;;;;;;5052261;28;20225;-80
2022/08/12 04:24:08;;;;;;;7.57;4.00;;;19.10;99.90;;;;;;5053615;28;20060;-80
2022/08/12 04:26:35;;;;;;;6.93;5.07;;;19.10;99.90;;;;;;5053382;28;20057;-80
2022/08/12 04:29:01;;;;;;;7.50;4.68;;;19.10;99.90;;;;;;5052421;28;20103;-81
2022/08/12 04:31:41;;;;;;;7.15;4.10;;;19.10;99.90;;;;;;5053286;28;20107;-81
2022/08/12 04:34:10;;;;;;;8.27;4.32;;;19.10;99.90;;;;;;5052071;28;20496;-80
2022/08/12 04:36:38;;;;;;;7.05;4.15;;;19.10;99.90;;;;;;5051981;28;20059;-80
2022/08/12 04:39:06;;;;;;;8.80;5.03;;;19.10;99.90;;;;;;5053316;28;20128;-81
2022/08/12 04:41:33;;;;;;;7.07;4.90;;;19.10;99.90;;;;;;5053473;28;20048;-80
2022/08/12 04:43:59;;;;;;;9.65;4.93;;;19.00;99.90;;;;;;5051886;28;20056;-80
2022/08/12 04:46:25;;;;;;;9.50;4.70;;;19.00;99.90;;;;;;5053413;28;20041;-80
2022/08/12 04:48:54;;;;;;;11.63;5.03;;;19.00;99.90;;;;;;5053269;28;20132;-80
2022/08/12 04:51:20;;;;;;;10.45;4.55;;;19.00;99.90;;;;;;5053407;28;20045;-80
2022/08/12 04:53:47;;;;;;;7.05;4.30;;;19.00;99.90;;;;;;5051865;28;20053;-80
2022/08/12 04:56:14;;;;;;;13.75;5.45;;;19.00;99.90;;;;;;5053213;28;20043;-80
2022/08/12 04:58:40;;;;;;;7.47;4.63;;;18.90;99.90;;;;;;5052963;28;20426;-80
2022/08/12 05:01:06;;;;;;;5.13;3.70;;;19.00;99.90;;;;;;5052073;28;20049;-80
2022/08/12 05:03:34;;;;;;;8.68;4.50;;;19.00;99.90;;;;;;5053285;28;20041;-80
2022/08/12 05:06:00;;;;;;;7.55;4.25;;;19.00;99.90;;;;;;5055676;28;20487;-80
2022/08/12 05:08:27;;;;;;;8.25;4.40;;;19.00;99.90;;;;;;5057193;28;20040;-80
2022/08/12 05:10:52;;;;;;;6.93;4.55;;;19.00;99.90;;;;;;5055612;28;20512;-80
2022/08/12 05:13:20;;;;;;;8.32;5.10;;;19.00;99.90;;;;;;5056840;28;20052;-80
2022/08/12 05:15:47;;;;;;;6.05;4.72;;;19.00;99.90;;;;;;5055489;28;20079;-80
2022/08/12 05:18:13;;;;;;;7.65;4.35;;;19.00;99.90;;;;;;5055602;28;20045;-80
2022/08/12 05:20:41;;;;;;;6.95;4.13;;;19.00;99.90;;;;;;5055490;28;20045;-80
2022/08/12 05:23:12;;;;;;;5.68;4.18;;;19.00;99.90;;;;;;5056880;28;20061;-79
2022/08/12 05:25:42;;;;;;;8.20;4.40;;;19.10;99.90;;;;;;5056340;28;20124;-80
2022/08/12 05:28:08;;;;;;;6.97;4.13;;;19.10;99.90;;;;;;5055325;28;20045;-80
2022/08/12 05:30:34;;;;;;;9.73;4.57;;;19.10;99.90;;;;;;5056560;28;20050;-79
2022/08/12 05:33:05;;;;;;;8.32;4.05;;;19.10;99.90;;;;;;5055374;28;20045;-80
2022/08/12 05:35:41;;;;;;;7.28;3.80;;;19.20;99.90;;;;;;5056695;28;20041;-80
2022/08/12 05:40:58;;;;;;;7.90;4.32;;;19.30;99.90;;;;;;5056354;28;20500;-80
2022/08/12 05:43:24;;;;;;;8.05;3.92;;;19.30;99.90;;;;;;5056346;28;20041;-80
2022/08/12 05:45:50;;;;;;;7.63;3.67;;;19.40;99.90;;;;;;5054966;28;20071;-80
2022/08/12 05:48:16;;;;;;;7.97;3.10;;;19.50;99.90;;;;;;5055142;28;20041;-80
2022/08/12 05:50:44;;;;;;;5.70;3.25;;;19.50;99.90;;;;;;5056315;28;20114;-80
2022/08/12 05:53:10;;;;;;;6.57;3.40;;;19.60;99.90;;;;;;5056391;28;20132;-80
2022/08/12 05:55:36;;;;;;;7.38;3.55;;;19.70;99.90;;;;;;5054954;28;20071;-80
2022/08/12 05:58:03;;;;;;;5.78;3.55;;;19.80;99.90;;;;;;5054764;28;20044;-80
2022/08/12 06:00:30;;;;;;;4.75;3.17;;;19.90;99.90;;;;;;5054984;28;20056;-80
2022/08/12 06:03:01;;;;;;;6.05;3.50;;;20.00;99.90;;;;;;5055052;28;20088;-80
2022/08/12 06:05:27;;;;;;;4.57;3.20;;;20.10;99.90;;;;;;5056123;28;20045;-80
2022/08/12 06:07:55;;;;;;;7.15;3.38;;;20.30;99.90;;;;;;5054858;28;20098;-80
2022/08/12 06:10:21;;;;;;;5.50;2.92;;;20.40;99.90;;;;;;5054795;28;20128;-80
2022/08/12 06:12:48;;;;;;;5.05;3.10;;;20.60;99.90;;;;;;5055766;28;20112;-80
2022/08/12 06:15:18;;;;;;;6.30;3.38;;;20.80;99.90;;;;;;5054334;28;20515;-80
2022/08/12 06:17:44;;;;;;;5.40;2.97;;;20.90;99.90;;;;;;5054190;28;20061;-80
2022/08/12 06:20:12;;;;;;;7.40;2.88;;;21.10;99.90;;;;;;5055811;28;20048;-80
2022/08/12 06:22:42;;;;;;;4.95;2.80;;;21.20;99.90;;;;;;5055817;28;20045;-80
2022/08/12 06:25:09;;;;;;;6.22;3.05;;;21.30;99.90;;;;;;5054569;28;20482;-81
2022/08/12 06:27:47;;;;;;;9.55;3.00;;;21.50;99.90;;;;;;5055999;28;20067;-81
2022/08/12 06:30:16;;;;;;;4.88;2.78;;;21.60;99.90;;;;;;5055368;28;20423;-79
2022/08/12 06:32:42;;;;;;;7.82;3.90;;;21.70;99.90;;;;;;5053961;28;20120;-79
2022/08/12 06:35:09;;;;;;;6.35;2.92;;;21.70;99.90;;;;;;5046095;28;20072;-79
2022/08/12 06:37:44;;;;;;;6.18;2.60;;;21.70;99.90;;;;;;5033957;28;20049;-79
2022/08/12 06:40:11;;;;;;;6.10;2.67;;;21.70;99.90;;;;;;5034124;28;20378;-80
2022/08/12 06:42:53;;;;;;;4.90;2.50;;;21.90;99.90;;;;;;5045529;28;20060;-80
2022/08/12 06:45:22;;;;;;;8.32;2.85;;;22.00;99.90;;;;;;5035022;28;20444;-80
2022/08/12 06:47:48;;;;;;;9.27;3.33;;;22.20;99.90;;;;;;5033988;28;20057;-80
2022/08/12 06:50:17;;;;;;;5.57;3.13;;;22.40;99.90;;;;;;5034923;28;20373;-82
2022/08/12 06:52:44;;;;;;;5.20;3.03;;;22.50;99.90;;;;;;5035141;28;20115;-80
2022/08/12 06:55:14;;;;;;;14.48;3.45;;;22.50;99.90;;;;;;5033684;28;20048;-80
2022/08/12 06:58:00;;;;;;;9.85;3.05;;;22.60;99.90;;;;;;5035035;28;20037;-79
2022/08/12 07:00:29;;;;;;;4.20;3.25;;;22.70;99.90;;;;;;5035021;28;20037;-80
2022/08/12 07:02:56;;;;;;;6.20;3.17;;;22.80;99.90;;;;;;5034873;28;20068;-80
2022/08/12 07:05:23;;;;;;;6.78;3.00;;;22.80;99.90;;;;;;5033385;28;20045;-80
2022/08/12 07:07:58;;;;;;;8.23;2.80;;;22.80;99.90;;;;;;5033467;28;20041;-80
2022/08/12 07:10:25;;;;;;;4.35;2.97;;;23.00;99.90;;;;;;5033623;28;20059;-80
2022/08/12 07:12:55;;;;;;;8.23;4.85;;;23.00;99.90;;;;;;5033649;28;20053;-80
2022/08/12 07:15:24;;;;;;;5.55;2.88;;;23.00;99.90;;;;;;5033091;28;20049;-81
2022/08/12 07:20:34;;;;;;;3.85;2.90;;;23.20;99.90;;;;;;5033113;28;20048;-80
2022/08/12 07:23:04;;;;;;;6.70;3.40;;;23.30;99.90;;;;;;5033284;28;20057;-80
2022/08/12 07:25:35;;;;;;;5.18;3.15;;;23.30;99.90;;;;;;5032827;28;20060;-81
2022/08/12 07:28:07;;;;;;;4.90;3.00;;;23.30;99.90;;;;;;5033491;28;20111;-80
2022/08/12 07:30:36;;;;;;;8.15;3.08;;;23.40;99.90;;;;;;5032781;28;20073;-81
2022/08/12 07:33:03;;;;;;;11.40;3.45;;;23.50;99.90;;;;;;5032702;28;20044;-80
2022/08/12 07:35:32;;;;;;;6.63;2.90;;;23.70;99.90;;;;;;5034250;28;20054;-80
2022/08/12 07:37:59;;;;;;;11.63;3.05;;;23.90;99.90;;;;;;5034302;28;20059;-80
2022/08/12 07:40:28;;;;;;;6.05;3.53;;;24.00;99.90;;;;;;5033787;28;20056;-79
2022/08/12 07:42:55;;;;;;;6.47;3.55;;;24.10;99.90;;;;;;5052182;28;20052;-80
2022/08/12 07:45:23;;;;;;;6.55;3.33;;;24.20;99.90;;;;;;5044628;28;20041;-79
2022/08/12 07:47:50;;;;;;;7.95;3.42;;;24.30;99.90;;;;;;5035535;28;20068;-80
2022/08/12 07:50:18;;;;;;;8.90;3.70;;;24.30;99.90;;;;;;5033778;28;20060;-78
2022/08/12 07:52:46;;;;;;;7.20;3.58;;;24.50;99.90;;;;;;5032532;28;20491;-80
2022/08/12 07:55:14;;;;;;;7.95;3.60;;;24.60;99.90;;;;;;5033927;28;20029;-79
2022/08/12 07:57:52;;;;;;;5.43;3.38;;;24.50;99.90;;;;;;5032601;28;20063;-79
2022/08/12 08:00:19;;;;;;;5.60;3.38;;;24.70;99.90;;;;;;5032090;28;20175;-79
2022/08/12 08:02:45;;;;;;;13.38;4.85;;;24.70;99.90;;;;;;5032285;28;20408;-79
2022/08/12 08:05:11;;;;;;;8.13;3.80;;;24.70;99.90;;;;;;5033456;28;20545;-79
2022/08/12 08:07:37;;;;;;;5.30;3.17;;;25.00;99.90;;;;;;5032101;28;20049;-79
2022/08/12 08:10:09;;;;;;;4.30;2.85;;;24.90;99.90;;;;;;5033646;28;20037;-79
2022/08/12 08:12:56;;;;;;;11.05;3.47;;;25.00;99.90;;;;;;5048706;28;20052;-79
2022/08/12 08:15:26;;;;;;;5.25;3.45;;;25.10;99.90;;;;;;5032093;28;20501;-79
2022/08/12 08:18:04;;;;;;;9.02;3.70;;;25.30;99.90;;;;;;5033241;28;20045;-79
2022/08/12 08:20:36;;;;;;;8.23;3.55;;;25.40;99.90;;;;;;5033494;28;20552;-79
2022/08/12 08:23:06;;;;;;;8.15;3.45;;;25.40;99.90;;;;;;5051713;28;20503;-79
2022/08/12 08:25:37;;;;;;;9.48;4.28;;;25.50;99.90;;;;;;5051710;28;20057;-79
2022/08/12 08:28:20;;;;;;;5.50;3.38;;;25.30;99.90;;;;;;5053226;28;20049;-79
2022/08/12 08:30:46;;;;;;;;;;;25.50;99.90;;;;;;5040270;28;20103;-79
2022/08/12 08:33:14;;;;;;;5.82;4.03;;;25.30;99.90;;;;;;5041184;28;19921;-79
2022/08/12 08:35:41;;;;;;;9.40;3.67;;;25.40;99.90;;;;;;5035639;28;20073;-80
2022/08/12 08:38:16;;;;;;;8.82;3.55;;;25.50;99.90;;;;;;5032522;28;20352;-79
2022/08/12 08:43:31;;;;;;;6.28;3.63;;;25.40;99.90;;;;;;5038606;28;20133;-81
2022/08/12 08:45:59;;;;;;;6.07;3.95;;;24.90;99.90;;;;;;5039592;28;20579;-81
2022/08/12 08:48:25;;;;;;;7.70;3.35;;;25.00;99.90;;;;;;5039791;28;20041;-79
2022/08/12 08:50:51;;;;;;;4.40;3.35;;;25.10;99.90;;;;;;5039504;28;20103;-80
2022/08/12 08:53:17;;;;;;;5.10;3.80;;;25.20;99.90;;;;;;5039639;28;20451;-81
2022/08/12 08:55:43;;;;;;;5.82;4.22;;;25.00;99.90;;;;;;5039607;28;20049;-82
2022/08/12 08:58:10;;;;;;;7.10;4.28;;;25.10;99.90;;;;;;5039372;28;20037;-81
2022/08/12 09:00:38;;;;;;;4.45;3.15;;;25.10;99.90;;;;;;5039325;28;20073;-81
2022/08/12 09:03:04;;;;;;;4.43;3.22;;;25.10;99.90;;;;;;5039663;28;20037;-80
2022/08/12 09:05:30;;;;;;;6.78;3.65;;;25.30;99.90;;;;;;5038309;28;20053;-80
2022/08/12 09:07:59;;;;;;;7.95;3.42;;;25.00;99.90;;;;;;5037969;28;20052;-80
2022/08/12 09:10:25;;;;;;;9.65;3.15;;;24.90;99.90;;;;;;5039733;28;20072;-81
2022/08/12 09:15:37;;;;;;;6.15;3.15;;;25.20;99.90;;;;;;5039480;28;20103;-79
2022/08/12 09:18:05;;;;;;;6.80;3.50;;;25.30;99.90;;;;;;5039258;28;20400;-79
2022/08/12 09:20:33;;;;;;;6.90;3.40;;;25.30;99.90;;;;;;5039483;28;20128;-80
2022/08/12 09:23:03;;;;;;;5.25;3.10;;;25.20;99.90;;;;;;5039295;28;20057;-80
2022/08/12 09:25:33;;;;;;;5.45;3.45;;;25.50;99.90;;;;;;5039300;28;20057;-80
2022/08/12 09:27:59;;;;;;;5.55;3.15;;;25.50;99.90;;;;;;5038087;28;20062;-81
2022/08/12 09:30:26;;;;;;;6.57;3.10;;;25.50;99.90;;;;;;5039495;28;20124;-80
2022/08/12 09:32:53;;;;;;;6.00;3.00;;;25.30;99.90;;;;;;5039281;28;20049;-80
2022/08/12 09:35:30;;;;;;;6.45;2.97;;;25.40;99.90;;;;;;5038276;28;20405;-81
2022/08/12 09:37:56;;;;;;;9.52;3.55;;;25.60;99.90;;;;;;5038952;28;20081;-83
2022/08/12 09:40:23;;;;;;;7.30;3.13;;;25.70;99.90;;;;;;5037945;28;20049;-83
2022/08/12 09:45:35;;;;;;;5.28;2.70;;;25.80;99.90;;;;;;5039073;28;20103;-81
2022/08/12 09:48:05;;;;;;;7.82;3.08;;;25.90;99.90;;;;;;5054650;28;20128;-80
2022/08/12 09:50:32;;;;;;;6.72;3.38;;;25.70;99.90;;;;;;5056683;28;20074;-80
2022/08/12 09:53:09;;;;;;;4.85;2.92;;;25.80;99.90;;;;;;5056032;28;20045;-81
2022/08/12 09:55:35;;;;;;;6.32;2.97;;;25.40;99.90;;;;;;5056097;28;20111;-81
2022/08/12 09:58:01;;;;;;;6.65;3.65;;;25.50;99.90;;;;;;5054420;28;20041;-81
2022/08/12 10:00:27;;;;;;;5.40;3.40;;;25.80;99.90;;;;;;5054558;28;20033;-81
2022/08/12 10:03:01;;;;;;;5.90;3.63;;;25.80;99.90;;;;;;5055696;28;20041;-81
2022/08/12 10:05:31;;;;;;;12.10;3.17;;;25.80;99.90;;;;;;5055703;28;20546;-80
2022/08/12 10:07:59;;;;;;;6.18;3.45;;;25.90;99.90;;;;;;5055834;28;20052;-80
2022/08/12 10:10:26;;;;;;;9.93;3.80;;;26.10;99.90;;;;;;5055608;28;20051;-81
2022/08/12 10:15:45;;;;;;;7.40;3.55;;;26.10;99.90;;;;;;5054417;28;20053;-81
2022/08/12 10:18:13;;;;;;;9.95;3.40;;;26.40;99.90;;;;;;5053489;28;20045;-82
2022/08/12 10:20:40;;;;;;;5.43;3.20;;;26.50;99.90;;;;;;5034255;28;20592;-80
2022/08/12 10:23:06;;;;;;;6.88;3.03;;;26.20;99.90;;;;;;5035720;28;20069;-80
2022/08/12 10:31:03;;;;;;;5.55;3.15;;;26.50;99.90;;;;;;5055306;28;20492;-81
2022/08/12 10:33:32;;;;;;;6.22;3.38;;;26.70;99.90;;;;;;5040351;28;20038;-81
2022/08/12 10:35:59;;;;;;;7.43;3.17;;;27.20;99.90;;;;;;5033545;28;20103;-81
2022/08/12 10:38:25;;;;;;;5.97;3.70;;;26.80;99.90;;;;;;5032853;28;20073;-81
2022/08/12 10:43:41;;;;;;;9.27;3.25;;;26.50;99.90;;;;;;5035329;28;20049;-81
2022/08/12 10:46:18;;;;;;;;;;;26.70;99.90;;;;;;5035441;28;20053;-80
2022/08/12 10:48:47;;;;;;;8.68;3.25;;;26.00;99.90;;;;;;5033704;28;19921;-80
2022/08/12 10:51:14;;;;;;;6.22;3.75;;;26.30;99.90;;;;;;5034900;28;20688;-80
2022/08/12 10:53:42;;;;;;;6.80;3.90;;;25.90;99.90;;;;;;5035186;28;20041;-81
2022/08/12 10:56:10;;;;;;;7.82;3.70;;;25.90;99.90;;;;;;5034700;28;20144;-80
2022/08/12 10:58:37;;;;;;;11.02;3.70;;;26.00;99.90;;;;;;5033561;28;20045;-80
2022/08/12 11:01:05;;;;;;;6.55;3.33;;;26.10;99.90;;;;;;5034533;28;20120;-82
2022/08/12 11:03:41;;;;;;;6.10;3.53;;;26.10;99.90;;;;;;5033644;28;20048;-82
2022/08/12 11:06:09;;;;;;;8.63;3.20;;;26.50;99.90;;;;;;5034891;28;20038;-81
2022/08/12 11:08:38;;;;;;;5.15;3.08;;;26.50;99.90;;;;;;5034658;28;20037;-81
2022/08/12 11:11:07;;;;;;;8.70;3.35;;;26.70;99.90;;;;;;5033484;28;20045;-82
2022/08/12 11:13:34;;;;;;;14.82;3.08;;;26.80;99.90;;;;;;5033166;28;20136;-81
2022/08/12 11:16:01;;;;;;;7.88;3.15;;;27.00;99.90;;;;;;5034598;28;20088;-81
2022/08/12 11:18:27;;;;;;;6.68;2.85;;;27.00;99.90;;;;;;5034504;28;20041;-81
2022/08/12 11:20:53;;;;;;;4.68;2.85;;;27.10;99.90;;;;;;5034400;28;20076;-81
2022/08/12 11:23:20;;;;;;;4.85;2.70;;;27.10;99.90;;;;;;5034018;28;20408;-82
2022/08/12 11:25:47;;;;;;;5.47;2.60;;;27.30;99.90;;;;;;5034152;28;20050;-81
2022/08/12 11:28:14;;;;;;;4.13;2.70;;;27.30;99.90;;;;;;5034349;28;20057;-81
2022/08/12 11:30:40;;;;;;;6.13;3.10;;;27.50;99.90;;;;;;5034330;28;20041;-82
2022/08/12 11:33:07;;;;;;;4.82;2.85;;;27.70;99.90;;;;;;5033969;28;20064;-82
2022/08/12 11:35:33;;;;;;;6.25;2.90;;;27.50;99.90;;;;;;5033767;28;20045;-80
2022/08/12 11:38:02;;;;;;;6.63;2.80;;;27.20;99.90;;;;;;5033912;28;20435;-81
2022/08/12 11:40:28;;;;;;;6.28;2.67;;;27.30;99.90;;;;;;5033885;28;20053;-82
2022/08/12 11:42:55;;;;;;;6.63;2.42;;;27.70;99.90;;;;;;5032511;28;20045;-81
2022/08/12 11:45:20;;;;;;;8.95;3.45;;;27.60;99.90;;;;;;5032419;28;20063;-81
2022/08/12 11:47:46;;;;;;;8.50;2.85;;;27.60;99.90;;;;;;5033781;28;20049;-82
2022/08/12 11:50:12;;;;;;;7.35;2.90;;;27.60;99.90;;;;;;5033675;28;20056;-82
2022/08/12 11:52:38;;;;;;;5.60;3.28;;;27.30;99.90;;;;;;5032291;28;20049;-81
2022/08/12 11:55:04;;;;;;;7.50;2.90;;;26.90;99.90;;;;;;5033833;28;20033;-83
2022/08/12 11:57:30;;;;;;;8.82;3.28;;;26.60;99.90;;;;;;5033997;28;20045;-81
2022/08/12 11:59:56;;;;;;;7.35;3.03;;;26.70;99.90;;;;;;5032485;28;20044;-82
2022/08/12 12:02:22;;;;;;;6.68;2.78;;;26.90;99.90;;;;;;5033748;28;20516;-81
2022/08/12 12:04:51;;;;;;;7.70;2.63;;;26.60;99.90;;;;;;5033630;28;20401;-82
2022/08/12 12:07:16;;;;;;;9.55;3.25;;;26.50;99.90;;;;;;5033689;28;20045;-82
2022/08/12 12:09:42;;;;;;;5.22;2.58;;;26.60;99.90;;;;;;5032409;28;20447;-82
2022/08/12 12:12:08;;;;;;;7.10;2.80;;;26.30;99.90;;;;;;5032233;28;20198;-82
2022/08/12 12:14:33;;;;;;;7.68;2.97;;;26.50;99.90;;;;;;5033027;28;20099;-82
2022/08/12 12:16:59;;;;;;;5.57;2.88;;;26.30;99.90;;;;;;5032186;28;20057;-83
2022/08/12 12:19:25;;;;;;;5.72;2.78;;;26.20;99.90;;;;;;5033805;28;20561;-82
2022/08/12 12:21:50;;;;;;;12.45;3.00;;;26.40;99.90;;;;;;5032159;28;20049;-82
2022/08/12 12:24:17;;;;;;;5.07;2.90;;;26.60;99.90;;;;;;5032443;28;20129;-81
2022/08/12 12:26:42;;;;;;;6.90;2.97;;;26.90;99.90;;;;;;5032017;28;20049;-81
2022/08/12 12:29:09;;;;;;;7.25;3.03;;;26.40;99.90;;;;;;5032426;28;20103;-82
2022/08/12 12:31:35;;;;;;;5.88;2.92;;;26.40;99.90;;;;;;5033588;28;20041;-82
2022/08/12 12:34:00;;;;;;;6.78;3.50;;;25.90;99.90;;;;;;5033551;28;20095;-81
2022/08/12 12:36:26;;;;;;;6.25;3.03;;;26.00;99.90;;;;;;5033442;28;20049;-81
2022/08/12 12:38:52;;;;;;;6.22;2.85;;;26.30;99.90;;;;;;5033562;28;20129;-82
2022/08/12 12:41:18;;;;;;;6.68;3.08;;;26.40;99.90;;;;;;5032186;28;20049;-80
2022/08/12 12:43:43;;;;;;;5.40;2.85;;;26.20;99.90;;;;;;5033203;28;20049;-82
2022/08/12 12:46:09;;;;;;;7.15;3.40;;;26.20;99.90;;;;;;5033470;28;20037;-83
2022/08/12 12:48:35;;;;;;;8.35;3.38;;;26.30;99.90;;;;;;5033362;28;20069;-79
2022/08/12 12:51:16;;;;;;;4.93;3.10;;;26.30;99.90;;;;;;5033093;28;20045;-82
2022/08/12 12:53:44;;;;;;;6.03;2.97;;;26.00;99.90;;;;;;5033187;28;20042;-81
2022/08/12 12:56:21;;;;;;;7.10;3.15;;;26.20;99.90;;;;;;5033372;28;20054;-81
2022/08/12 12:58:51;;;;;;;8.10;3.20;;;26.20;99.90;;;;;;5034185;28;20033;-81
2022/08/12 13:01:24;;;;;;;6.55;3.03;;;26.10;99.90;;;;;;5053248;28;20099;-79
2022/08/12 13:03:53;;;;;;;9.52;3.40;;;26.20;99.90;;;;;;5053022;28;20076;-80
2022/08/12 13:06:24;;;;;;;6.20;2.97;;;25.90;99.90;;;;;;5052978;28;20732;-80
2022/08/12 13:08:52;;;;;;;5.88;3.42;;;26.00;99.90;;;;;;5053246;28;20044;-81
2022/08/12 13:11:19;;;;;;;7.25;3.28;;;25.90;99.90;;;;;;5051783;28;20051;-80
2022/08/12 13:13:48;;;;;;;7.88;3.17;;;26.00;99.90;;;;;;5053238;28;20045;-80
2022/08/12 13:16:16;;;;;;;6.07;2.80;;;26.10;99.90;;;;;;5051928;28;20056;-81
2022/08/12 13:18:42;;;;;;;6.85;2.90;;;26.20;99.90;;;;;;5043917;28;20041;-81
2022/08/12 13:21:08;;;;;;;8.63;2.83;;;26.30;99.90;;;;;;5042119;28;20068;-80
2022/08/12 13:23:34;;;;;;;5.18;2.83;;;26.40;99.90;;;;;;5041647;28;20033;-80
2022/08/12 13:26:00;;;;;;;6.82;3.10;;;26.60;99.90;;;;;;5042075;28;20530;-80
2022/08/12 13:28:29;;;;;;;6.40;2.63;;;26.80;99.90;;;;;;5047227;28;20049;-81
2022/08/12 13:30:57;;;;;;;7.20;3.10;;;26.80;99.90;;;;;;5053553;28;20056;-81
2022/08/12 13:33:28;;;;;;;8.30;2.80;;;26.60;99.90;;;;;;5055361;28;20041;-80
2022/08/12 13:35:59;;;;;;;6.13;2.70;;;26.90;99.90;;;;;;5055179;28;20056;-81
2022/08/12 13:38:37;;;;;;;7.95;3.00;;;26.50;99.90;;;;;;5055391;28;20049;-82
2022/08/12 13:41:04;;;;;;;6.05;3.20;;;26.50;99.90;;;;;;5055763;28;20493;-81
2022/08/12 13:43:31;;;;;;;6.45;2.50;;;26.20;99.90;;;;;;5055058;28;20377;-82
2022/08/12 13:45:58;;;;;;;4.82;2.70;;;26.20;99.90;;;;;;5055077;28;20041;-82
2022/08/12 13:48:24;;;;;;;6.93;2.92;;;26.00;99.90;;;;;;5056201;28;20422;-81
2022/08/12 13:50:49;;;;;;;4.57;2.95;;;25.80;99.90;;;;;;5056205;28;20480;-81
2022/08/12 13:53:16;;;;;;;4.95;2.65;;;25.80;99.90;;;;;;5055178;28;20048;-82
2022/08/12 13:55:44;;;;;;;8.90;3.08;;;25.80;99.90;;;;;;5054613;28;20044;-81
2022/08/12 13:58:18;;;;;;;6.60;2.90;;;26.20;99.90;;;;;;5044048;28;20125;-82
2022/08/12 14:00:50;;;;;;;5.85;2.92;;;26.40;99.90;;;;;;5050569;28;20106;-82
2022/08/12 14:03:20;;;;;;;10.32;3.10;;;26.50;99.90;;;;;;5053108;28;20053;-83
2022/08/12 14:05:47;;;;;;;5.95;2.55;;;26.50;99.90;;;;;;5054703;28;20033;-81
2022/08/12 14:08:14;;;;;;;7.20;2.70;;;26.70;99.90;;;;;;5055126;28;20041;-81
2022/08/12 14:10:48;;;;;;;4.20;2.95;;;26.70;99.90;;;;;;5055882;28;20127;-81
2022/08/12 14:13:19;;;;;;;4.40;2.72;;;26.10;99.90;;;;;;5054583;28;20037;-82
2022/08/12 14:15:51;;;;;;;6.40;2.65;;;26.30;99.90;;;;;;5054602;28;20048;-82
2022/08/12 14:18:26;;;;;;;6.72;3.42;;;26.50;99.90;;;;;;5053990;28;20472;-81
2022/08/12 14:21:13;;;;;;;7.38;3.20;;;26.40;99.90;;;;;;5055658;28;20082;-83
2022/08/12 14:23:41;;;;;;;7.30;3.05;;;26.40;99.90;;;;;;5054636;28;20080;-85
2022/08/12 14:26:12;;;;;;;7.47;3.88;;;26.60;99.90;;;;;;5054524;28;20057;-80
2022/08/12 14:28:39;;;;;;;7.95;3.42;;;26.40;99.90;;;;;;5055702;28;20040;-80
2022/08/12 14:31:07;;;;;;;8.57;3.25;;;26.60;99.90;;;;;;5055416;28;20049;-82
2022/08/12 14:33:35;;;;;;;6.40;3.30;;;26.70;99.90;;;;;;5055364;28;20045;-84
2022/08/12 14:36:09;;;;;;;5.10;3.25;;;26.70;99.90;;;;;;5054028;28;20045;-80
2022/08/12 14:38:43;;;;;;;8.27;3.53;;;26.50;99.90;;;;;;5054860;28;20518;-81
2022/08/12 14:41:10;;;;;;;7.38;3.30;;;26.40;99.90;;;;;;5054360;28;20072;-82